createdAt,value
2023-04-25T00:00:18.172Z,7.53
2023-04-25T00:02:45.164Z,7.65
2023-04-25T00:05:12.709Z,8.38
2023-04-25T00:07:39.928Z,9.52
2023-04-25T00:10:07.717Z,7.78
2023-04-25T00:12:34.703Z,8.30
2023-04-25T00:15:01.494Z,9.13
2023-04-25T00:17:28.706Z,9.93
2023-04-25T00:19:55.939Z,10.85
2023-04-25T00:22:23.005Z,10.75
2023-04-25T00:24:49.668Z,10.35
2023-04-25T00:27:16.569Z,10.40
2023-04-25T00:29:43.456Z,11.45
2023-04-25T00:32:11.043Z,11.27
2023-04-25T00:34:37.884Z,11.20
2023-04-25T00:37:04.973Z,11.95
2023-04-25T00:39:31.940Z,11.95
2023-04-25T00:41:59.443Z,12.25
2023-04-25T00:44:27.949Z,10.90
2023-04-25T00:46:55.749Z,11.93
2023-04-25T00:49:22.569Z,11.27
2023-04-25T00:51:49.511Z,12.38
2023-04-25T00:54:17.555Z,11.85
2023-04-25T00:56:46.352Z,11.68
2023-04-25T00:59:13.959Z,11.57
2023-04-25T01:01:42.874Z,12.20
2023-04-25T01:04:09.974Z,11.13
2023-04-25T01:06:37.049Z,11.45
2023-04-25T01:09:05.855Z,10.30
2023-04-25T01:11:32.956Z,10.10
2023-04-25T01:14:00.158Z,10.55
2023-04-25T01:16:28.106Z,10.45
2023-04-25T01:18:56.301Z,12.02
2023-04-25T01:21:23.488Z,11.00
2023-04-25T01:23:51.398Z,10.50
2023-04-25T01:26:18.765Z,11.10
2023-04-25T01:28:46.568Z,10.95
2023-04-25T01:31:13.950Z,10.73
2023-04-25T01:33:41.121Z,10.43
2023-04-25T01:36:08.175Z,10.60
2023-04-25T01:38:35.406Z,10.65
2023-04-25T01:41:02.319Z,10.65
2023-04-25T01:43:29.404Z,11.93
2023-04-25T01:45:58.184Z,11.48
2023-04-25T01:48:25.234Z,12.00
2023-04-25T01:50:52.343Z,11.70
2023-04-25T01:53:19.173Z,10.95
2023-04-25T01:55:46.098Z,10.45
2023-04-25T01:58:14.133Z,10.80
2023-04-25T02:00:42.148Z,11.05
2023-04-25T02:03:09.860Z,9.70
2023-04-25T02:05:38.113Z,10.40
2023-04-25T02:08:07.405Z,10.40
2023-04-25T02:10:35.455Z,10.00
2023-04-25T02:13:03.254Z,8.50
2023-04-25T02:15:30.181Z,9.52
2023-04-25T02:17:57.200Z,8.45
2023-04-25T02:20:25.977Z,7.85
2023-04-25T02:22:55.477Z,6.72
2023-04-25T02:25:22.641Z,7.68
2023-04-25T02:27:49.781Z,7.50
2023-04-25T02:30:16.856Z,7.53
2023-04-25T02:32:44.203Z,7.32
2023-04-25T02:35:11.358Z,6.57
2023-04-25T02:37:39.880Z,6.53
2023-04-25T02:40:08.004Z,6.57
2023-04-25T02:42:35.300Z,6.13
2023-04-25T02:45:06.289Z,6.68
2023-04-25T02:47:33.041Z,6.32
2023-04-25T02:50:00.000Z,6.22
2023-04-25T02:52:27.022Z,6.28
2023-04-25T02:54:53.734Z,6.90
2023-04-25T02:57:20.782Z,5.95
2023-04-25T02:59:47.707Z,6.57
2023-04-25T03:02:14.521Z,5.97
2023-04-25T03:04:41.585Z,6.10
2023-04-25T03:07:08.660Z,5.70
2023-04-25T03:09:35.860Z,5.03
2023-04-25T03:12:02.833Z,6.15
2023-04-25T03:14:29.832Z,5.05
2023-04-25T03:16:56.856Z,4.65
2023-04-25T03:19:23.632Z,4.93
2023-04-25T03:21:50.712Z,4.65
2023-04-25T03:24:17.710Z,4.70
2023-04-25T03:26:44.772Z,4.65
2023-04-25T03:29:11.764Z,4.47
2023-04-25T03:31:38.617Z,4.20
2023-04-25T03:34:05.805Z,4.75
2023-04-25T03:36:33.838Z,4.53
2023-04-25T03:39:00.856Z,4.20
2023-04-25T03:41:27.654Z,3.97
2023-04-25T03:43:54.493Z,4.15
2023-04-25T03:46:21.503Z,4.35
2023-04-25T03:48:48.480Z,4.78
2023-04-25T03:51:15.222Z,4.65
2023-04-25T03:53:45.017Z,4.47
2023-04-25T03:56:12.109Z,4.75
2023-04-25T03:58:39.054Z,4.28
2023-04-25T04:01:08.825Z,4.38
2023-04-25T04:03:37.499Z,4.95
2023-04-25T04:06:06.760Z,4.88
2023-04-25T04:08:34.388Z,4.72
2023-04-25T04:11:01.701Z,4.15
2023-04-25T04:13:29.897Z,4.55
2023-04-25T04:15:57.271Z,4.18
2023-04-25T04:18:24.195Z,4.10
2023-04-25T04:20:51.140Z,4.22
2023-04-25T04:23:18.230Z,4.63
2023-04-25T04:25:45.380Z,4.82
2023-04-25T04:28:12.269Z,4.78
2023-04-25T04:30:40.380Z,4.45
2023-04-25T04:33:08.554Z,3.90
2023-04-25T04:35:35.712Z,4.25
2023-04-25T04:38:10.546Z,4.68
2023-04-25T04:40:37.546Z,4.38
2023-04-25T04:43:04.494Z,4.47
2023-04-25T04:45:31.375Z,4.32
2023-04-25T04:47:58.402Z,3.95
2023-04-25T04:50:25.254Z,4.95
2023-04-25T04:52:52.065Z,3.78
2023-04-25T04:55:19.111Z,4.22
2023-04-25T04:57:46.096Z,4.63
2023-04-25T05:00:13.498Z,4.10
2023-04-25T05:02:40.704Z,4.03
2023-04-25T05:05:08.843Z,4.40
2023-04-25T05:07:35.851Z,4.22
2023-04-25T05:10:02.933Z,3.65
2023-04-25T05:12:29.833Z,3.85
2023-04-25T05:14:56.642Z,3.97
2023-04-25T05:17:23.608Z,3.95
2023-04-25T05:19:50.474Z,3.42
2023-04-25T05:22:17.433Z,3.58
2023-04-25T05:24:44.247Z,3.55
2023-04-25T05:27:11.261Z,3.58
2023-04-25T05:29:38.559Z,3.95
2023-04-25T05:32:06.747Z,3.88
2023-04-25T05:34:33.631Z,3.75
2023-04-25T05:37:00.658Z,3.72
2023-04-25T05:39:28.024Z,3.20
2023-04-25T05:41:54.860Z,3.75
2023-04-25T05:44:21.858Z,3.90
2023-04-25T05:46:48.958Z,3.88
2023-04-25T05:49:17.569Z,3.72
2023-04-25T05:51:46.332Z,3.30
2023-04-25T05:54:13.321Z,3.70
2023-04-25T05:56:40.595Z,4.00
2023-04-25T05:59:07.615Z,4.10
2023-04-25T06:01:34.553Z,3.88
2023-04-25T06:04:01.680Z,3.78
2023-04-25T06:06:28.903Z,4.07
2023-04-25T06:08:57.315Z,4.18
2023-04-25T06:11:23.961Z,4.47
2023-04-25T06:13:51.361Z,4.00
2023-04-25T06:16:18.615Z,4.05
2023-04-25T06:18:45.618Z,3.85
2023-04-25T06:21:13.128Z,3.92
2023-04-25T06:23:40.165Z,4.68
2023-04-25T06:26:07.097Z,4.30
2023-04-25T06:28:34.127Z,3.53
2023-04-25T06:31:01.122Z,4.03
2023-04-25T06:33:28.034Z,5.15
2023-04-25T06:35:54.916Z,4.82
2023-04-25T06:38:22.258Z,5.05
2023-04-25T06:40:49.040Z,4.15
2023-04-25T06:43:15.690Z,4.40
2023-04-25T06:45:44.111Z,4.15
2023-04-25T06:48:12.104Z,4.18
2023-04-25T06:50:39.174Z,4.18
2023-04-25T06:53:06.142Z,4.85
2023-04-25T06:55:33.141Z,4.65
2023-04-25T06:58:00.042Z,4.90
2023-04-25T07:00:27.440Z,5.00
2023-04-25T07:02:54.427Z,4.45
2023-04-25T07:05:21.579Z,5.95
2023-04-25T07:07:48.591Z,5.28
2023-04-25T07:10:16.459Z,6.03
2023-04-25T07:12:43.317Z,5.75
2023-04-25T07:15:11.499Z,6.63
2023-04-25T07:17:39.004Z,5.72
2023-04-25T07:20:07.236Z,5.50
2023-04-25T07:22:34.135Z,5.78
2023-04-25T07:25:01.095Z,5.65
2023-04-25T07:27:28.191Z,6.53
2023-04-25T07:29:55.362Z,5.80
2023-04-25T07:32:22.307Z,5.75
2023-04-25T07:34:49.113Z,4.88
2023-04-25T07:37:16.407Z,5.07
2023-04-25T07:39:43.310Z,5.00
2023-04-25T07:42:10.574Z,5.85
2023-04-25T07:44:39.743Z,4.70
2023-04-25T07:47:10.384Z,4.93
2023-04-25T07:49:38.362Z,4.03
2023-04-25T07:52:09.803Z,3.92
2023-04-25T07:54:36.875Z,4.22
2023-04-25T07:57:03.803Z,4.18
2023-04-25T07:59:30.970Z,3.50
2023-04-25T08:01:58.740Z,3.55
2023-04-25T08:04:26.984Z,3.17
2023-04-25T08:06:54.891Z,3.10
2023-04-25T08:09:22.035Z,3.30
2023-04-25T08:11:48.998Z,3.17
2023-04-25T08:14:16.195Z,3.05
2023-04-25T08:16:43.478Z,2.80
2023-04-25T08:19:11.425Z,2.97
2023-04-25T08:21:38.299Z,3.00
2023-04-25T08:24:05.522Z,3.10
2023-04-25T08:26:33.380Z,3.20
2023-04-25T08:29:00.184Z,3.30
2023-04-25T08:31:27.064Z,2.72
2023-04-25T08:33:54.056Z,3.22
2023-04-25T08:36:31.399Z,3.05
2023-04-25T08:39:05.361Z,2.85
2023-04-25T08:41:32.874Z,2.63
2023-04-25T08:44:01.851Z,2.60
2023-04-25T08:46:29.842Z,2.80
2023-04-25T08:49:02.282Z,2.70
2023-04-25T08:51:33.095Z,2.50
2023-04-25T08:54:27.916Z,2.90
2023-04-25T08:57:03.058Z,2.60
2023-04-25T08:59:31.112Z,2.65
2023-04-25T09:01:58.694Z,2.35
2023-04-25T09:04:25.915Z,2.65
2023-04-25T09:06:52.709Z,2.33
2023-04-25T09:09:19.459Z,2.22
2023-04-25T09:11:46.130Z,2.50
2023-04-25T09:14:17.951Z,2.58
2023-04-25T09:16:56.401Z,2.53
2023-04-25T09:19:40.256Z,2.45
2023-04-25T09:22:08.256Z,2.50
2023-04-25T09:24:36.333Z,2.42
2023-04-25T09:27:07.160Z,2.38
2023-04-25T09:29:35.887Z,2.53
2023-04-25T09:32:25.156Z,2.30
2023-04-25T09:34:52.909Z,2.40
2023-04-25T09:37:28.599Z,2.65
2023-04-25T09:40:00.368Z,2.30
2023-04-25T09:42:30.010Z,2.30
2023-04-25T09:44:57.541Z,2.70
2023-04-25T09:47:25.868Z,3.25
2023-04-25T09:49:54.239Z,2.40
2023-04-25T09:52:25.304Z,2.58
2023-04-25T09:54:53.526Z,2.70
2023-04-25T09:57:22.258Z,2.45
2023-04-25T09:59:56.667Z,2.17
2023-04-25T10:02:26.295Z,2.92
2023-04-25T10:04:58.225Z,3.00
2023-04-25T10:07:29.103Z,3.00
2023-04-25T10:10:01.362Z,2.80
2023-04-25T10:12:28.533Z,2.92
2023-04-25T10:14:56.444Z,2.60
2023-04-25T10:17:24.050Z,2.88
2023-04-25T10:19:52.497Z,2.60
2023-04-25T10:22:27.365Z,2.67
2023-04-25T10:24:54.633Z,2.85
2023-04-25T10:27:21.859Z,3.20
2023-04-25T10:30:31.286Z,3.15
2023-04-25T10:33:00.456Z,3.10
2023-04-25T10:35:35.168Z,2.72
2023-04-25T10:38:08.402Z,3.35
2023-04-25T10:40:35.352Z,3.25
2023-04-25T10:43:40.948Z,2.85
2023-04-25T10:46:15.160Z,2.43
2023-04-25T10:48:48.685Z,3.83
2023-04-25T10:51:34.541Z,3.92
2023-04-25T10:54:09.918Z,3.90
2023-04-25T10:56:42.590Z,3.80
2023-04-25T10:59:17.196Z,3.92
2023-04-25T11:01:48.602Z,3.13
2023-04-25T11:04:26.686Z,4.03
2023-04-25T11:07:07.523Z,3.58
2023-04-25T11:09:36.758Z,3.17
2023-04-25T11:12:03.770Z,3.80
2023-04-25T11:14:30.832Z,3.88
2023-04-25T11:17:02.040Z,3.97
2023-04-25T11:19:29.951Z,3.50
2023-04-25T11:22:01.295Z,3.97
2023-04-25T11:24:33.637Z,3.47
2023-04-25T11:27:01.272Z,3.70
2023-04-25T11:29:28.952Z,5.25
2023-04-25T11:31:59.773Z,3.78
2023-04-25T11:34:27.355Z,3.90
2023-04-25T11:36:55.008Z,5.00
2023-04-25T11:39:22.594Z,3.92
2023-04-25T11:41:49.428Z,4.00
2023-04-25T11:44:20.007Z,4.50
2023-04-25T11:46:48.224Z,4.53
2023-04-25T11:49:16.785Z,4.05
2023-04-25T11:51:46.330Z,4.43
2023-04-25T11:54:13.959Z,3.83
2023-04-25T11:56:47.217Z,4.10
2023-04-25T11:59:14.542Z,4.95
2023-04-25T12:01:48.885Z,4.13
2023-04-25T12:04:24.106Z,4.50
2023-04-25T12:06:55.579Z,4.20
2023-04-25T12:09:30.146Z,4.32
2023-04-25T12:11:59.444Z,4.50
2023-04-25T12:14:37.016Z,4.10
2023-04-25T12:17:06.499Z,4.32
2023-04-25T12:19:41.278Z,4.57
2023-04-25T12:22:25.967Z,4.95
2023-04-25T12:24:55.196Z,4.50
2023-04-25T12:27:22.283Z,5.60
2023-04-25T12:29:57.030Z,5.15
2023-04-25T12:32:24.143Z,5.22
2023-04-25T12:34:51.135Z,5.07
2023-04-25T12:37:18.058Z,5.82
2023-04-25T12:39:45.098Z,5.72
2023-04-25T12:42:13.430Z,5.65
2023-04-25T12:44:41.527Z,5.88
2023-04-25T12:47:08.665Z,6.45
2023-04-25T12:49:36.120Z,5.80
2023-04-25T12:52:03.098Z,5.75
2023-04-25T12:54:29.914Z,6.82
2023-04-25T12:56:56.890Z,6.43
2023-04-25T12:59:24.376Z,5.93
2023-04-25T13:01:51.250Z,6.93
2023-04-25T13:04:19.039Z,6.72
2023-04-25T13:06:46.244Z,6.22
2023-04-25T13:12:00.348Z,6.53
2023-04-25T13:14:27.474Z,6.13
2023-04-25T13:16:55.398Z,7.13
2023-04-25T13:19:22.675Z,6.70
2023-04-25T13:21:49.471Z,7.40
2023-04-25T13:24:16.912Z,6.13
2023-04-25T13:26:43.607Z,6.47
2023-04-25T13:29:10.520Z,6.20
2023-04-25T13:31:37.352Z,6.53
2023-04-25T13:34:04.942Z,5.85
2023-04-25T13:36:32.955Z,6.43
2023-04-25T13:38:59.836Z,6.97
2023-04-25T13:41:27.350Z,7.05
2023-04-25T13:43:55.090Z,6.80
2023-04-25T13:46:40.877Z,6.60
2023-04-25T13:49:12.952Z,8.25
2023-04-25T13:51:41.109Z,6.65
2023-04-25T13:54:08.744Z,6.40
2023-04-25T13:56:35.809Z,7.32
2023-04-25T13:59:02.766Z,6.78
2023-04-25T14:01:32.228Z,6.55
2023-04-25T14:03:59.147Z,7.10
2023-04-25T14:06:26.350Z,6.90
2023-04-25T14:08:53.169Z,6.38
2023-04-25T14:11:20.111Z,6.70
2023-04-25T14:13:47.743Z,6.65
2023-04-25T14:16:14.762Z,7.20
2023-04-25T14:18:42.045Z,6.60
2023-04-25T14:21:10.582Z,7.10
2023-04-25T14:23:37.260Z,7.75
2023-04-25T14:26:04.134Z,8.05
2023-04-25T14:28:30.991Z,7.53
2023-04-25T14:30:57.933Z,7.22
2023-04-25T14:33:24.948Z,7.55
2023-04-25T14:35:52.060Z,7.28
2023-04-25T14:38:19.670Z,8.27
2023-04-25T14:40:46.776Z,7.55
2023-04-25T14:43:13.704Z,7.53
2023-04-25T14:45:40.815Z,7.57
2023-04-25T14:48:08.143Z,8.07
2023-04-25T14:50:35.104Z,7.57
2023-04-25T14:53:02.194Z,7.93
2023-04-25T14:55:29.382Z,8.50
2023-04-25T14:57:57.656Z,7.95
2023-04-25T15:00:26.429Z,9.18
2023-04-25T15:02:53.677Z,8.30
2023-04-25T15:05:21.193Z,9.35
2023-04-25T15:07:48.966Z,9.93
2023-04-25T15:10:17.296Z,9.52
2023-04-25T15:12:46.931Z,10.15
2023-04-25T15:15:22.560Z,9.40
2023-04-25T15:17:56.457Z,9.45
2023-04-25T15:20:25.724Z,9.48
2023-04-25T15:22:52.636Z,9.73
2023-04-25T15:25:19.706Z,9.90
2023-04-25T15:27:49.299Z,9.52
2023-04-25T15:30:18.151Z,10.77
2023-04-25T15:32:46.120Z,9.98
2023-04-25T15:35:15.799Z,10.57
2023-04-25T15:37:42.902Z,10.70
2023-04-25T15:40:13.824Z,11.35
2023-04-25T15:42:44.060Z,10.57
2023-04-25T15:45:12.243Z,11.02
2023-04-25T15:47:39.850Z,12.15
2023-04-25T15:50:09.721Z,12.13
2023-04-25T15:52:37.760Z,12.25
2023-04-25T15:55:06.612Z,11.57
2023-04-25T15:57:35.780Z,11.48
2023-04-25T16:00:05.669Z,12.73
2023-04-25T16:02:32.706Z,13.27
2023-04-25T16:04:59.835Z,12.13
2023-04-25T16:07:27.007Z,11.52
2023-04-25T16:09:54.238Z,13.13
2023-04-25T16:12:21.313Z,13.65
2023-04-25T16:14:48.523Z,13.23
2023-04-25T16:17:15.473Z,13.02
2023-04-25T16:19:42.514Z,14.77
2023-04-25T16:22:11.496Z,13.85
2023-04-25T16:24:38.349Z,13.27
2023-04-25T16:27:05.744Z,14.50
2023-04-25T16:29:32.694Z,14.25
2023-04-25T16:31:59.861Z,14.25
2023-04-25T16:34:27.762Z,13.48
2023-04-25T16:36:56.383Z,14.25
2023-04-25T16:39:23.760Z,14.13
2023-04-25T16:41:51.007Z,13.60
2023-04-25T16:44:17.971Z,14.57
2023-04-25T16:46:45.203Z,14.80
2023-04-25T16:49:12.253Z,13.15
2023-04-25T16:51:39.227Z,14.40
2023-04-25T16:54:06.722Z,13.68
2023-04-25T16:56:33.696Z,16.02
2023-04-25T16:59:00.600Z,14.80
2023-04-25T17:01:27.680Z,14.77
2023-04-25T17:03:54.825Z,14.88
2023-04-25T17:06:22.131Z,13.02
2023-04-25T17:08:49.197Z,14.10
2023-04-25T17:11:16.515Z,14.63
2023-04-25T17:13:44.205Z,13.73
2023-04-25T17:16:16.782Z,13.30
2023-04-25T17:18:44.185Z,13.85
2023-04-25T17:21:11.237Z,14.25
2023-04-25T17:23:38.159Z,16.30
2023-04-25T17:26:04.976Z,14.40
2023-04-25T17:28:31.725Z,12.90
2023-04-25T17:30:58.897Z,12.15
2023-04-25T17:33:27.231Z,12.02
2023-04-25T17:35:54.553Z,12.38
2023-04-25T17:38:21.869Z,11.90
2023-04-25T17:40:48.733Z,12.10
2023-04-25T17:43:15.945Z,12.55
2023-04-25T17:45:42.896Z,11.52
2023-04-25T17:48:09.898Z,12.00
2023-04-25T17:50:36.976Z,11.93
2023-04-25T17:53:03.976Z,12.20
2023-04-25T17:55:31.384Z,12.65
2023-04-25T17:57:58.314Z,10.65
2023-04-25T18:00:25.194Z,10.52
2023-04-25T18:02:52.440Z,11.48
2023-04-25T18:05:19.637Z,11.07
2023-04-25T18:07:46.545Z,10.88
2023-04-25T18:10:14.789Z,11.18
2023-04-25T18:12:43.225Z,11.13
2023-04-25T18:15:10.827Z,8.48
2023-04-25T18:17:40.759Z,8.32
2023-04-25T18:20:14.392Z,8.60
2023-04-25T18:22:43.134Z,8.32
2023-04-25T18:25:11.366Z,7.95
2023-04-25T18:27:38.994Z,8.32
2023-04-25T18:30:09.133Z,8.00
2023-04-25T18:32:36.934Z,8.32
2023-04-25T18:35:04.637Z,8.25
2023-04-25T18:37:31.348Z,7.97
2023-04-25T18:39:58.766Z,7.30
2023-04-25T18:42:25.842Z,7.40
2023-04-25T18:44:52.855Z,7.50
2023-04-25T18:47:19.743Z,8.00
2023-04-25T18:49:48.536Z,7.47
2023-04-25T18:52:16.209Z,7.63
2023-04-25T18:54:43.292Z,6.90
2023-04-25T18:57:14.510Z,7.20
2023-04-25T18:59:41.385Z,6.85
2023-04-25T19:02:09.586Z,7.13
2023-04-25T19:04:36.993Z,7.18
2023-04-25T19:07:04.473Z,6.88
2023-04-25T19:09:31.774Z,7.03
2023-04-25T19:11:58.663Z,6.90
2023-04-25T19:14:26.287Z,7.00
2023-04-25T19:16:54.289Z,7.28
2023-04-25T19:19:22.382Z,8.65
2023-04-25T19:21:51.002Z,7.20
2023-04-25T19:24:18.116Z,6.18
2023-04-25T19:26:45.094Z,6.60
2023-04-25T19:29:15.284Z,6.65
2023-04-25T19:31:44.700Z,6.75
2023-04-25T19:34:12.280Z,7.20
2023-04-25T19:36:40.720Z,7.93
2023-04-25T19:39:07.781Z,8.10
2023-04-25T19:41:37.890Z,8.77
2023-04-25T19:44:07.492Z,8.82
2023-04-25T19:46:35.895Z,10.98
2023-04-25T19:49:06.059Z,11.13
2023-04-25T19:51:34.188Z,10.50
2023-04-25T19:54:01.241Z,11.23
2023-04-25T19:56:28.231Z,10.85
2023-04-25T19:58:56.435Z,12.13
2023-04-25T20:01:23.421Z,11.55
2023-04-25T20:03:53.446Z,12.95
2023-04-25T20:06:20.705Z,13.45
2023-04-25T20:08:47.619Z,13.48
2023-04-25T20:11:15.166Z,13.07
2023-04-25T20:13:42.139Z,14.68
2023-04-25T20:16:09.150Z,15.07
2023-04-25T20:18:36.269Z,15.13
2023-04-25T20:21:03.261Z,16.70
2023-04-25T20:23:30.248Z,16.88
2023-04-25T20:25:57.267Z,16.13
2023-04-25T20:28:24.196Z,15.20
2023-04-25T20:30:51.928Z,14.90
2023-04-25T20:33:21.843Z,15.52
2023-04-25T20:35:49.490Z,17.17
2023-04-25T20:38:16.654Z,16.05
2023-04-25T20:40:43.663Z,16.95
2023-04-25T20:43:12.078Z,16.92
2023-04-25T20:45:39.917Z,17.27
2023-04-25T20:48:06.765Z,18.55
2023-04-25T20:50:34.299Z,19.52
2023-04-25T20:53:01.157Z,17.55
2023-04-25T20:55:27.982Z,16.38
2023-04-25T20:57:55.079Z,17.70
2023-04-25T21:00:27.655Z,15.68
2023-04-25T21:02:55.428Z,17.88
2023-04-25T21:05:23.521Z,16.60
2023-04-25T21:07:52.442Z,16.50
2023-04-25T21:10:19.266Z,16.73
2023-04-25T21:12:50.137Z,17.20
2023-04-25T21:15:18.687Z,18.25
2023-04-25T21:17:48.585Z,16.05
2023-04-25T21:20:20.502Z,18.70
2023-04-25T21:22:50.443Z,17.30
2023-04-25T21:25:24.414Z,18.42
2023-04-25T21:27:53.081Z,18.05
2023-04-25T21:30:23.606Z,19.38
2023-04-25T21:32:52.181Z,18.58
2023-04-25T21:35:21.015Z,18.20
2023-04-25T21:37:48.396Z,19.27
2023-04-25T21:40:15.732Z,19.83
2023-04-25T21:42:44.798Z,19.50
2023-04-25T21:45:12.235Z,19.90
2023-04-25T21:47:39.518Z,18.80
2023-04-25T21:50:08.074Z,20.67
2023-04-25T21:52:36.470Z,20.38
2023-04-25T21:55:03.616Z,19.75
2023-04-25T21:57:30.552Z,20.67
2023-04-25T21:59:57.493Z,20.77
2023-04-25T22:02:24.902Z,20.02
2023-04-25T22:04:52.674Z,20.50
2023-04-25T22:07:19.723Z,20.13
2023-04-25T22:09:54.540Z,20.10
2023-04-25T22:12:23.648Z,18.60
2023-04-25T22:14:50.988Z,19.52
2023-04-25T22:17:19.124Z,18.80
2023-04-25T22:19:47.175Z,21.08
2023-04-25T22:22:14.433Z,19.90
2023-04-25T22:24:42.377Z,21.17
2023-04-25T22:27:11.271Z,20.70
2023-04-25T22:29:38.308Z,20.98
2023-04-25T22:32:05.609Z,21.30
2023-04-25T22:34:32.849Z,21.70
2023-04-25T22:36:59.812Z,21.08
2023-04-25T22:39:26.880Z,21.88
2023-04-25T22:41:54.702Z,24.10
2023-04-25T22:44:22.620Z,25.70
2023-04-25T22:46:49.463Z,23.83
2023-04-25T22:49:17.472Z,27.00
2023-04-25T22:51:44.152Z,26.52
2023-04-25T22:54:11.154Z,27.40
2023-04-25T22:56:38.168Z,27.10
2023-04-25T22:59:15.085Z,25.55
2023-04-25T23:01:42.801Z,26.45
2023-04-25T23:04:10.534Z,27.33
2023-04-25T23:06:38.268Z,26.77
2023-04-25T23:09:06.270Z,24.98
2023-04-25T23:11:33.204Z,26.13
2023-04-25T23:13:59.960Z,27.55
2023-04-25T23:16:27.246Z,29.23
2023-04-25T23:18:54.429Z,30.27
2023-04-25T23:21:21.722Z,29.00
2023-04-25T23:23:48.603Z,26.77
2023-04-25T23:26:15.635Z,28.25
2023-04-25T23:28:43.155Z,27.55
2023-04-25T23:31:10.754Z,30.10
2023-04-25T23:33:37.926Z,30.52
2023-04-25T23:36:05.581Z,30.23
2023-04-25T23:38:32.581Z,33.15
2023-04-25T23:40:59.444Z,31.38
2023-04-25T23:43:26.343Z,32.88
2023-04-25T23:45:54.406Z,34.30
2023-04-25T23:48:21.419Z,33.08
2023-04-25T23:50:48.475Z,32.50
2023-04-25T23:53:15.857Z,32.15
2023-04-25T23:55:42.578Z,30.13
2023-04-25T23:58:09.568Z,32.97
